GLO9461 SKBO-SBEG
Flight info
| Callsign | GLO9461 |
|---|---|
| Flight time | N/A |
| Altitude | 37000 |
| Route | POVSO UP527 UKEDA |
| Aircraft | B38M/M-DFGHIJ4J7KLORWXY/LB1 |
Departure
| Time | N/A |
|---|---|
| Airport | El Dorado International Airport (SKBO) |
Arrival
| Time | 2026-04-23 01:53 |
|---|---|
| Airport | Eduardo Gomes International Airport (SBEG) |
| Time | Latitude | Longitude | Altitude | Speed | Heading |
|---|---|---|---|---|---|
| 2026-04-22 23:33 | 3.95462 | -74.21039 | 25512 ft | 417 kts | 144° |
| 2026-04-22 23:33 | 3.93350 | -74.19080 | 25817 ft | 419 kts | 128° |
| 2026-04-22 23:34 | 3.91786 | -74.16593 | 26133 ft | 421 kts | 117° |
| 2026-04-22 23:34 | 3.90455 | -74.13995 | 26420 ft | 423 kts | 117° |
| 2026-04-22 23:34 | 3.89142 | -74.11335 | 26750 ft | 425 kts | 116° |
| 2026-04-22 23:34 | 3.87848 | -74.08660 | 27057 ft | 426 kts | 116° |
| 2026-04-22 23:35 | 3.86563 | -74.05966 | 27380 ft | 428 kts | 116° |
| 2026-04-22 23:35 | 3.85292 | -74.03284 | 27690 ft | 430 kts | 116° |
| 2026-04-22 23:35 | 3.84015 | -74.00583 | 27989 ft | 432 kts | 115° |
| 2026-04-22 23:35 | 3.82719 | -73.97839 | 28271 ft | 434 kts | 115° |
| 2026-04-22 23:36 | 3.81431 | -73.95113 | 28552 ft | 436 kts | 115° |
| 2026-04-22 23:36 | 3.80142 | -73.92385 | 28821 ft | 438 kts | 115° |
| 2026-04-22 23:36 | 3.78832 | -73.89611 | 29102 ft | 439 kts | 115° |
| 2026-04-22 23:36 | 3.77529 | -73.86853 | 29384 ft | 441 kts | 115° |
| 2026-04-22 23:37 | 3.76217 | -73.84077 | 29661 ft | 442 kts | 115° |
| 2026-04-22 23:37 | 3.74896 | -73.81281 | 29916 ft | 444 kts | 115° |
| 2026-04-22 23:37 | 3.73565 | -73.78465 | 30147 ft | 446 kts | 115° |
| 2026-04-22 23:37 | 3.72247 | -73.75676 | 30367 ft | 447 kts | 115° |
| 2026-04-22 23:38 | 3.70920 | -73.72868 | 30595 ft | 448 kts | 115° |
| 2026-04-22 23:38 | 3.69574 | -73.70021 | 30826 ft | 449 kts | 115° |
| 2026-04-22 23:38 | 3.68248 | -73.67218 | 31050 ft | 450 kts | 115° |
| 2026-04-22 23:38 | 3.66914 | -73.64396 | 31277 ft | 451 kts | 115° |
| 2026-04-22 23:39 | 3.65565 | -73.61543 | 31507 ft | 452 kts | 115° |
| 2026-04-22 23:39 | 3.64213 | -73.58684 | 31719 ft | 453 kts | 115° |
| 2026-04-22 23:39 | 3.62859 | -73.55822 | 31924 ft | 454 kts | 115° |
| 2026-04-22 23:39 | 3.61517 | -73.52985 | 32136 ft | 455 kts | 115° |
| 2026-04-22 23:40 | 3.60154 | -73.50104 | 32360 ft | 456 kts | 115° |
| 2026-04-22 23:40 | 3.58792 | -73.47224 | 32639 ft | 455 kts | 115° |
| 2026-04-22 23:40 | 3.57445 | -73.44377 | 32923 ft | 454 kts | 115° |
| 2026-04-22 23:40 | 3.56099 | -73.41533 | 33223 ft | 453 kts | 115° |
| 2026-04-22 23:41 | 3.54744 | -73.38670 | 33530 ft | 452 kts | 115° |
| 2026-04-22 23:41 | 3.53403 | -73.35837 | 33836 ft | 451 kts | 115° |
| 2026-04-22 23:41 | 3.52072 | -73.33024 | 34089 ft | 449 kts | 115° |
| 2026-04-22 23:41 | 3.50726 | -73.30180 | 34322 ft | 449 kts | 115° |
| 2026-04-22 23:42 | 3.49401 | -73.27383 | 34546 ft | 448 kts | 115° |
| 2026-04-22 23:42 | 3.48055 | -73.24538 | 34786 ft | 448 kts | 115° |
| 2026-04-22 23:42 | 3.46731 | -73.21743 | 34987 ft | 447 kts | 115° |
| 2026-04-22 23:42 | 3.45402 | -73.18936 | 35203 ft | 447 kts | 115° |
| 2026-04-22 23:43 | 3.44059 | -73.16101 | 35412 ft | 447 kts | 115° |
| 2026-04-22 23:43 | 3.42740 | -73.13317 | 35614 ft | 446 kts | 115° |
| 2026-04-22 23:43 | 3.41419 | -73.10528 | 35813 ft | 446 kts | 115° |
| 2026-04-22 23:43 | 3.40085 | -73.07710 | 36010 ft | 446 kts | 115° |
| 2026-04-22 23:44 | 3.38762 | -73.04919 | 36205 ft | 446 kts | 115° |
| 2026-04-22 23:44 | 3.37426 | -73.02099 | 36396 ft | 445 kts | 115° |
| 2026-04-22 23:44 | 3.36106 | -72.99312 | 36593 ft | 445 kts | 115° |
| 2026-04-22 23:44 | 3.34771 | -72.96496 | 36773 ft | 445 kts | 115° |
| 2026-04-22 23:45 | 3.32131 | -72.90926 | 36866 ft | 444 kts | 115° |
| 2026-04-22 23:45 | 3.29490 | -72.85355 | 36868 ft | 443 kts | 115° |
| 2026-04-22 23:46 | 3.26850 | -72.79785 | 36866 ft | 442 kts | 115° |
| 2026-04-22 23:46 | 3.24213 | -72.74224 | 36869 ft | 442 kts | 115° |
| 2026-04-22 23:47 | 3.21591 | -72.68695 | 36866 ft | 441 kts | 115° |
| 2026-04-22 23:47 | 3.18957 | -72.63142 | 36872 ft | 441 kts | 114° |
| 2026-04-22 23:48 | 3.16332 | -72.57609 | 36872 ft | 440 kts | 114° |
| 2026-04-22 23:48 | 3.13641 | -72.52136 | 36873 ft | 439 kts | 117° |
| 2026-04-22 23:49 | 3.10813 | -72.46720 | 36868 ft | 438 kts | 116° |
| 2026-04-22 23:49 | 3.08008 | -72.41319 | 36873 ft | 437 kts | 116° |
| 2026-04-22 23:50 | 3.05229 | -72.35964 | 36878 ft | 436 kts | 116° |
| 2026-04-22 23:50 | 3.02425 | -72.30563 | 36879 ft | 435 kts | 116° |
| 2026-04-22 23:51 | 2.99640 | -72.25197 | 36877 ft | 434 kts | 116° |
| 2026-04-22 23:51 | 2.96853 | -72.19830 | 36878 ft | 433 kts | 116° |
| 2026-04-22 23:52 | 2.94092 | -72.14514 | 36879 ft | 433 kts | 116° |
| 2026-04-22 23:52 | 2.91327 | -72.09190 | 36882 ft | 432 kts | 116° |
| 2026-04-22 23:53 | 2.88547 | -72.03837 | 36882 ft | 431 kts | 116° |
| 2026-04-22 23:53 | 2.85802 | -71.98555 | 36882 ft | 430 kts | 116° |
| 2026-04-22 23:54 | 2.83041 | -71.93240 | 36889 ft | 429 kts | 116° |
| 2026-04-22 23:54 | 2.80297 | -71.87960 | 36886 ft | 428 kts | 116° |
| 2026-04-22 23:55 | 2.77549 | -71.82672 | 36891 ft | 428 kts | 116° |
| 2026-04-22 23:55 | 2.74811 | -71.77405 | 36893 ft | 427 kts | 116° |
| 2026-04-22 23:56 | 2.72080 | -71.72153 | 36892 ft | 427 kts | 116° |
| 2026-04-22 23:56 | 2.69337 | -71.66876 | 36897 ft | 427 kts | 116° |
| 2026-04-22 23:57 | 2.66594 | -71.61601 | 36898 ft | 426 kts | 116° |
| 2026-04-22 23:57 | 2.63872 | -71.56368 | 36897 ft | 426 kts | 116° |
| 2026-04-22 23:58 | 2.61141 | -71.51116 | 36901 ft | 426 kts | 116° |
| 2026-04-22 23:58 | 2.58404 | -71.45855 | 36900 ft | 426 kts | 116° |
| 2026-04-22 23:59 | 2.55678 | -71.40615 | 36902 ft | 425 kts | 116° |
| 2026-04-22 23:59 | 2.52938 | -71.35350 | 36904 ft | 425 kts | 116° |
| 2026-04-23 00:00 | 2.49304 | -71.28367 | 36906 ft | 425 kts | 117° |
| 2026-04-23 00:01 | 2.46132 | -71.22272 | 36907 ft | 424 kts | 116° |
| 2026-04-23 00:01 | 2.43404 | -71.17032 | 36910 ft | 424 kts | 117° |
| 2026-04-23 00:02 | 2.40679 | -71.11797 | 36907 ft | 424 kts | 117° |
| 2026-04-23 00:02 | 2.37963 | -71.06581 | 36909 ft | 424 kts | 117° |
| 2026-04-23 00:03 | 2.35244 | -71.01358 | 36907 ft | 424 kts | 117° |
| 2026-04-23 00:03 | 2.32517 | -70.96123 | 36902 ft | 424 kts | 117° |
| 2026-04-23 00:04 | 2.29801 | -70.90912 | 36908 ft | 424 kts | 117° |
| 2026-04-23 00:04 | 2.27062 | -70.85697 | 36914 ft | 424 kts | 117° |
| 2026-04-23 00:05 | 2.24315 | -70.80468 | 36905 ft | 424 kts | 117° |
| 2026-04-23 00:05 | 2.21574 | -70.75249 | 36909 ft | 424 kts | 117° |
| 2026-04-23 00:06 | 2.18826 | -70.70016 | 36909 ft | 425 kts | 117° |
| 2026-04-23 00:06 | 2.16079 | -70.64787 | 36908 ft | 425 kts | 117° |
| 2026-04-23 00:07 | 2.13329 | -70.59552 | 36913 ft | 425 kts | 117° |
| 2026-04-23 00:07 | 2.11047 | -70.55210 | 36914 ft | 425 kts | 117° |
| 2026-04-23 00:08 | 2.07846 | -70.49118 | 36913 ft | 425 kts | 117° |
| 2026-04-23 00:08 | 2.05100 | -70.43892 | 36910 ft | 424 kts | 117° |
| 2026-04-23 00:09 | 2.02360 | -70.38679 | 36911 ft | 424 kts | 117° |
| 2026-04-23 00:09 | 1.99611 | -70.33450 | 36912 ft | 424 kts | 117° |
| 2026-04-23 00:10 | 1.97322 | -70.29095 | 36912 ft | 424 kts | 117° |
| 2026-04-23 00:10 | 1.94571 | -70.23862 | 36912 ft | 425 kts | 117° |
| 2026-04-23 00:11 | 1.91822 | -70.18634 | 36913 ft | 425 kts | 117° |
| 2026-04-23 00:11 | 1.89090 | -70.13438 | 36915 ft | 425 kts | 117° |
| 2026-04-23 00:12 | 1.86343 | -70.08213 | 36918 ft | 425 kts | 117° |
| 2026-04-23 00:12 | 1.83589 | -70.02978 | 36918 ft | 425 kts | 117° |
| 2026-04-23 00:13 | 1.80837 | -69.97745 | 36915 ft | 425 kts | 117° |
| 2026-04-23 00:13 | 1.78087 | -69.92517 | 36917 ft | 425 kts | 117° |
| 2026-04-23 00:14 | 1.75331 | -69.87278 | 36919 ft | 425 kts | 117° |
| 2026-04-23 00:14 | 1.72576 | -69.82040 | 36917 ft | 425 kts | 116° |
| 2026-04-23 00:15 | 1.69846 | -69.76811 | 36923 ft | 425 kts | 116° |
| 2026-04-23 00:15 | 1.67147 | -69.71572 | 36920 ft | 425 kts | 116° |
| 2026-04-23 00:16 | 1.64441 | -69.66324 | 36922 ft | 424 kts | 116° |
| 2026-04-23 00:16 | 1.61727 | -69.61062 | 36917 ft | 424 kts | 116° |
| 2026-04-23 00:17 | 1.59022 | -69.55818 | 36918 ft | 424 kts | 116° |
| 2026-04-23 00:17 | 1.56327 | -69.50593 | 36918 ft | 424 kts | 116° |
| 2026-04-23 00:18 | 1.53634 | -69.45372 | 36923 ft | 424 kts | 116° |
| 2026-04-23 00:18 | 1.50926 | -69.40124 | 36919 ft | 424 kts | 116° |
| 2026-04-23 00:19 | 1.48218 | -69.34876 | 36916 ft | 423 kts | 116° |
| 2026-04-23 00:19 | 1.45528 | -69.29663 | 36919 ft | 423 kts | 116° |
| 2026-04-23 00:20 | 1.42827 | -69.24430 | 36920 ft | 423 kts | 116° |
| 2026-04-23 00:20 | 1.40137 | -69.19216 | 36918 ft | 424 kts | 116° |
| 2026-04-23 00:21 | 1.37434 | -69.13977 | 36917 ft | 424 kts | 116° |
| 2026-04-23 00:21 | 1.34728 | -69.08735 | 36918 ft | 424 kts | 116° |
| 2026-04-23 00:22 | 1.32026 | -69.03501 | 36916 ft | 424 kts | 116° |
| 2026-04-23 00:22 | 1.29320 | -68.98259 | 36920 ft | 424 kts | 116° |
| 2026-04-23 00:23 | 1.26606 | -68.93002 | 36918 ft | 425 kts | 116° |
| 2026-04-23 00:23 | 1.23912 | -68.87782 | 36919 ft | 425 kts | 116° |
| 2026-04-23 00:24 | 1.21200 | -68.82530 | 36919 ft | 425 kts | 116° |
| 2026-04-23 00:24 | 1.18487 | -68.77276 | 36920 ft | 425 kts | 116° |
| 2026-04-23 00:25 | 1.15774 | -68.72022 | 36918 ft | 426 kts | 116° |
| 2026-04-23 00:25 | 1.13061 | -68.66768 | 36919 ft | 426 kts | 116° |
| 2026-04-23 00:26 | 1.10343 | -68.61505 | 36918 ft | 426 kts | 116° |
| 2026-04-23 00:26 | 1.07621 | -68.56235 | 36923 ft | 426 kts | 116° |
| 2026-04-23 00:27 | 1.04904 | -68.50974 | 36921 ft | 427 kts | 116° |
| 2026-04-23 00:27 | 1.02185 | -68.45709 | 36921 ft | 427 kts | 116° |
| 2026-04-23 00:28 | 0.99464 | -68.40441 | 36923 ft | 427 kts | 116° |
| 2026-04-23 00:28 | 0.96745 | -68.35178 | 36921 ft | 427 kts | 116° |
| 2026-04-23 00:29 | 0.94010 | -68.29882 | 36923 ft | 427 kts | 116° |
| 2026-04-23 00:29 | 0.91279 | -68.24596 | 36925 ft | 428 kts | 116° |
| 2026-04-23 00:30 | 0.88565 | -68.19343 | 36931 ft | 428 kts | 116° |
| 2026-04-23 00:30 | 0.85831 | -68.14051 | 36928 ft | 427 kts | 116° |
| 2026-04-23 00:31 | 0.83098 | -68.08761 | 36925 ft | 427 kts | 116° |
| 2026-04-23 00:31 | 0.80382 | -68.03503 | 36924 ft | 427 kts | 116° |
| 2026-04-23 00:32 | 0.77659 | -67.98234 | 36929 ft | 426 kts | 116° |
| 2026-04-23 00:32 | 0.74938 | -67.92968 | 36927 ft | 426 kts | 116° |
| 2026-04-23 00:33 | 0.72215 | -67.87698 | 36932 ft | 426 kts | 116° |
| 2026-04-23 00:33 | 0.69513 | -67.82469 | 36931 ft | 426 kts | 116° |
| 2026-04-23 00:34 | 0.66795 | -67.77210 | 36930 ft | 425 kts | 116° |
| 2026-04-23 00:34 | 0.64072 | -67.71941 | 36933 ft | 425 kts | 116° |
| 2026-04-23 00:35 | 0.61377 | -67.66727 | 36931 ft | 425 kts | 116° |
| 2026-04-23 00:35 | 0.58666 | -67.61480 | 36933 ft | 425 kts | 116° |
| 2026-04-23 00:36 | 0.55953 | -67.56230 | 36932 ft | 425 kts | 116° |
| 2026-04-23 00:36 | 0.53246 | -67.50994 | 36933 ft | 424 kts | 116° |
| 2026-04-23 00:37 | 0.50538 | -67.45754 | 36932 ft | 424 kts | 116° |
| 2026-04-23 00:37 | 0.47830 | -67.40516 | 36937 ft | 424 kts | 116° |
| 2026-04-23 00:38 | 0.45119 | -67.35271 | 36931 ft | 425 kts | 116° |
| 2026-04-23 00:38 | 0.42400 | -67.30010 | 36933 ft | 425 kts | 116° |
| 2026-04-23 00:39 | 0.39704 | -67.24793 | 36935 ft | 425 kts | 116° |
| 2026-04-23 00:39 | 0.36982 | -67.19529 | 36935 ft | 426 kts | 116° |
| 2026-04-23 00:40 | 0.34259 | -67.14261 | 36939 ft | 426 kts | 116° |
| 2026-04-23 00:40 | 0.31555 | -67.09029 | 36939 ft | 426 kts | 116° |
| 2026-04-23 00:41 | 0.28838 | -67.03769 | 36937 ft | 426 kts | 116° |
| 2026-04-23 00:41 | 0.26125 | -66.98521 | 36936 ft | 426 kts | 116° |
| 2026-04-23 00:42 | 0.23403 | -66.93253 | 36938 ft | 426 kts | 116° |
| 2026-04-23 00:42 | 0.20691 | -66.88004 | 36942 ft | 426 kts | 116° |
| 2026-04-23 00:43 | 0.17963 | -66.82726 | 36942 ft | 426 kts | 116° |
| 2026-04-23 00:43 | 0.15257 | -66.77489 | 36940 ft | 426 kts | 116° |
| 2026-04-23 00:44 | 0.12538 | -66.72229 | 36941 ft | 426 kts | 116° |
| 2026-04-23 00:44 | 0.09807 | -66.66944 | 36941 ft | 426 kts | 116° |
| 2026-04-23 00:45 | 0.07106 | -66.61718 | 36942 ft | 426 kts | 116° |
| 2026-04-23 00:45 | 0.04384 | -66.56450 | 36943 ft | 426 kts | 116° |
| 2026-04-23 00:46 | 0.01668 | -66.51193 | 36941 ft | 426 kts | 116° |
| 2026-04-23 00:46 | -0.01058 | -66.45920 | 36944 ft | 426 kts | 116° |
| 2026-04-23 00:47 | -0.03769 | -66.40673 | 36938 ft | 427 kts | 116° |
| 2026-04-23 00:47 | -0.06485 | -66.35418 | 36941 ft | 427 kts | 116° |
| 2026-04-23 00:48 | -0.09210 | -66.30145 | 36937 ft | 427 kts | 116° |
| 2026-04-23 00:48 | -0.11941 | -66.24860 | 36944 ft | 428 kts | 116° |
| 2026-04-23 00:49 | -0.14660 | -66.19600 | 36943 ft | 428 kts | 116° |
| 2026-04-23 00:49 | -0.17389 | -66.14318 | 36944 ft | 428 kts | 116° |
| 2026-04-23 00:50 | -0.20127 | -66.09022 | 36943 ft | 429 kts | 116° |
| 2026-04-23 00:50 | -0.22859 | -66.03735 | 36939 ft | 429 kts | 116° |
| 2026-04-23 00:51 | -0.25604 | -65.98424 | 36943 ft | 429 kts | 116° |
| 2026-04-23 00:51 | -0.28325 | -65.93158 | 36942 ft | 429 kts | 116° |
| 2026-04-23 00:52 | -0.31068 | -65.87851 | 36943 ft | 429 kts | 116° |
| 2026-04-23 00:52 | -0.33804 | -65.82556 | 36938 ft | 429 kts | 116° |
| 2026-04-23 00:53 | -0.36532 | -65.77277 | 36939 ft | 429 kts | 116° |
| 2026-04-23 00:53 | -0.39273 | -65.71973 | 36941 ft | 429 kts | 115° |
| 2026-04-23 00:54 | -0.42023 | -65.66652 | 36938 ft | 429 kts | 115° |
| 2026-04-23 00:54 | -0.44757 | -65.61363 | 36934 ft | 430 kts | 115° |
| 2026-04-23 00:55 | -0.47490 | -65.56073 | 36934 ft | 430 kts | 115° |
| 2026-04-23 00:55 | -0.50245 | -65.50743 | 36935 ft | 430 kts | 115° |
| 2026-04-23 00:56 | -0.52980 | -65.45451 | 36935 ft | 430 kts | 115° |
| 2026-04-23 00:56 | -0.55728 | -65.40134 | 36936 ft | 431 kts | 116° |
| 2026-04-23 00:57 | -0.58488 | -65.34798 | 36936 ft | 431 kts | 116° |
| 2026-04-23 00:57 | -0.60769 | -65.30386 | 36937 ft | 431 kts | 116° |
| 2026-04-23 00:58 | -0.63975 | -65.24185 | 36935 ft | 431 kts | 116° |
| 2026-04-23 00:58 | -0.66266 | -65.19754 | 36934 ft | 431 kts | 116° |
| 2026-04-23 00:59 | -0.69125 | -65.14493 | 36941 ft | 431 kts | 117° |
| 2026-04-23 00:59 | -0.72007 | -65.09228 | 36936 ft | 431 kts | 117° |
| 2026-04-23 01:00 | -0.74883 | -65.03968 | 36936 ft | 431 kts | 117° |
| 2026-04-23 01:00 | -0.77760 | -64.98705 | 36936 ft | 431 kts | 117° |
| 2026-04-23 01:01 | -0.80631 | -64.93454 | 36939 ft | 431 kts | 117° |
| 2026-04-23 01:01 | -0.83510 | -64.88187 | 36941 ft | 431 kts | 117° |
| 2026-04-23 01:02 | -0.86368 | -64.82958 | 36936 ft | 432 kts | 117° |
| 2026-04-23 01:02 | -0.89253 | -64.77680 | 36937 ft | 432 kts | 117° |
| 2026-04-23 01:03 | -0.92137 | -64.72403 | 36940 ft | 432 kts | 117° |
| 2026-04-23 01:03 | -0.95003 | -64.67160 | 36938 ft | 432 kts | 117° |
| 2026-04-23 01:04 | -0.97883 | -64.61889 | 36945 ft | 432 kts | 117° |
| 2026-04-23 01:04 | -1.02184 | -64.54021 | 36936 ft | 432 kts | 117° |
| 2026-04-23 01:05 | -1.05076 | -64.48728 | 36941 ft | 432 kts | 117° |
| 2026-04-23 01:05 | -1.07953 | -64.43462 | 36938 ft | 432 kts | 117° |
| 2026-04-23 01:06 | -1.10837 | -64.38183 | 36939 ft | 432 kts | 117° |
| 2026-04-23 01:06 | -1.13705 | -64.32935 | 36942 ft | 432 kts | 117° |
| 2026-04-23 01:07 | -1.16581 | -64.27670 | 36940 ft | 432 kts | 117° |
| 2026-04-23 01:07 | -1.19467 | -64.22388 | 36935 ft | 432 kts | 117° |
| 2026-04-23 01:08 | -1.22349 | -64.17112 | 36938 ft | 433 kts | 117° |
| 2026-04-23 01:08 | -1.25217 | -64.11861 | 36939 ft | 433 kts | 117° |
| 2026-04-23 01:09 | -1.28110 | -64.06566 | 36934 ft | 433 kts | 117° |
| 2026-04-23 01:09 | -1.30990 | -64.01292 | 36934 ft | 433 kts | 117° |
| 2026-04-23 01:10 | -1.33886 | -63.95990 | 36935 ft | 433 kts | 117° |
| 2026-04-23 01:10 | -1.36776 | -63.90698 | 36939 ft | 434 kts | 117° |
| 2026-04-23 01:11 | -1.39653 | -63.85429 | 36939 ft | 434 kts | 117° |
| 2026-04-23 01:11 | -1.42552 | -63.80120 | 36937 ft | 434 kts | 117° |
| 2026-04-23 01:12 | -1.45446 | -63.74819 | 36940 ft | 435 kts | 117° |
| 2026-04-23 01:12 | -1.48336 | -63.69526 | 36954 ft | 435 kts | 117° |
| 2026-04-23 01:13 | -1.51225 | -63.64234 | 36955 ft | 435 kts | 117° |
| 2026-04-23 01:13 | -1.54137 | -63.58900 | 36951 ft | 435 kts | 117° |
| 2026-04-23 01:14 | -1.57037 | -63.53587 | 36947 ft | 435 kts | 117° |
| 2026-04-23 01:14 | -1.59922 | -63.48301 | 36954 ft | 436 kts | 117° |
| 2026-04-23 01:15 | -1.62820 | -63.42991 | 36954 ft | 436 kts | 117° |
| 2026-04-23 01:15 | -1.65724 | -63.37670 | 36958 ft | 435 kts | 117° |
| 2026-04-23 01:16 | -1.68627 | -63.32350 | 36954 ft | 435 kts | 117° |
| 2026-04-23 01:16 | -1.71522 | -63.27044 | 36951 ft | 435 kts | 117° |
| 2026-04-23 01:17 | -1.74175 | -63.21620 | 36965 ft | 433 kts | 111° |
| 2026-04-23 01:17 | -1.76497 | -63.16078 | 36960 ft | 434 kts | 112° |
| 2026-04-23 01:18 | -1.78876 | -63.10525 | 36951 ft | 435 kts | 112° |
| 2026-04-23 01:18 | -1.81267 | -63.04961 | 36956 ft | 435 kts | 112° |
| 2026-04-23 01:19 | -1.83656 | -62.99400 | 36954 ft | 435 kts | 112° |
| 2026-04-23 01:19 | -1.86034 | -62.93867 | 36954 ft | 435 kts | 112° |
| 2026-04-23 01:20 | -1.88431 | -62.88289 | 36958 ft | 435 kts | 112° |
| 2026-04-23 01:20 | -1.90808 | -62.82756 | 36959 ft | 436 kts | 112° |
| 2026-04-23 01:21 | -1.93202 | -62.77183 | 36956 ft | 436 kts | 112° |
| 2026-04-23 01:21 | -1.95609 | -62.71579 | 36961 ft | 437 kts | 112° |
| 2026-04-23 01:22 | -1.98003 | -62.66006 | 36959 ft | 437 kts | 112° |
| 2026-04-23 01:22 | -2.00395 | -62.60436 | 36963 ft | 438 kts | 112° |
| 2026-04-23 01:23 | -2.02863 | -62.54868 | 36956 ft | 438 kts | 113° |
| 2026-04-23 01:23 | -2.05369 | -62.49341 | 36959 ft | 438 kts | 113° |
| 2026-04-23 01:24 | -2.07879 | -62.43791 | 36964 ft | 438 kts | 113° |
| 2026-04-23 01:24 | -2.10398 | -62.38221 | 36966 ft | 438 kts | 113° |
| 2026-04-23 01:25 | -2.12902 | -62.32684 | 36962 ft | 438 kts | 113° |
| 2026-04-23 01:25 | -2.15425 | -62.27103 | 36966 ft | 439 kts | 113° |
| 2026-04-23 01:26 | -2.17921 | -62.21582 | 36970 ft | 439 kts | 113° |
| 2026-04-23 01:26 | -2.20439 | -62.16011 | 36930 ft | 438 kts | 113° |
| 2026-04-23 01:27 | -2.21690 | -62.13243 | 36152 ft | 440 kts | 113° |
| 2026-04-23 01:27 | -2.22954 | -62.10445 | 35240 ft | 447 kts | 113° |
| 2026-04-23 01:27 | -2.24248 | -62.07582 | 34658 ft | 445 kts | 113° |
| 2026-04-23 01:27 | -2.25504 | -62.04801 | 34219 ft | 440 kts | 113° |
| 2026-04-23 01:28 | -2.26771 | -62.01999 | 33661 ft | 438 kts | 113° |
| 2026-04-23 01:28 | -2.28011 | -61.99254 | 33052 ft | 434 kts | 113° |
| 2026-04-23 01:28 | -2.29265 | -61.96479 | 32491 ft | 437 kts | 113° |
| 2026-04-23 01:28 | -2.30512 | -61.93719 | 31948 ft | 439 kts | 113° |
| 2026-04-23 01:29 | -2.31771 | -61.90933 | 31414 ft | 436 kts | 113° |
| 2026-04-23 01:29 | -2.33001 | -61.88209 | 30894 ft | 432 kts | 113° |
| 2026-04-23 01:29 | -2.34242 | -61.85460 | 30359 ft | 430 kts | 113° |
| 2026-04-23 01:29 | -2.35462 | -61.82760 | 29783 ft | 427 kts | 113° |
| 2026-04-23 01:30 | -2.36689 | -61.80044 | 29180 ft | 425 kts | 113° |
| 2026-04-23 01:30 | -2.37889 | -61.77387 | 28656 ft | 421 kts | 113° |
| 2026-04-23 01:30 | -2.39099 | -61.74707 | 28145 ft | 417 kts | 113° |
| 2026-04-23 01:30 | -2.40281 | -61.72091 | 27646 ft | 414 kts | 113° |
| 2026-04-23 01:31 | -2.41466 | -61.69466 | 27144 ft | 411 kts | 113° |
| 2026-04-23 01:31 | -2.42628 | -61.66893 | 26651 ft | 408 kts | 114° |
| 2026-04-23 01:31 | -2.43803 | -61.64289 | 26146 ft | 406 kts | 114° |
| 2026-04-23 01:31 | -2.44952 | -61.61744 | 25663 ft | 404 kts | 114° |
| 2026-04-23 01:32 | -2.46119 | -61.59158 | 25165 ft | 403 kts | 114° |
| 2026-04-23 01:32 | -2.47261 | -61.56629 | 24685 ft | 402 kts | 114° |
| 2026-04-23 01:32 | -2.48406 | -61.54093 | 24210 ft | 401 kts | 114° |
| 2026-04-23 01:32 | -2.49563 | -61.51528 | 23733 ft | 400 kts | 114° |
| 2026-04-23 01:33 | -2.50698 | -61.49014 | 23204 ft | 399 kts | 114° |
| 2026-04-23 01:33 | -2.51834 | -61.46496 | 22697 ft | 397 kts | 114° |
| 2026-04-23 01:33 | -2.52971 | -61.43977 | 22226 ft | 394 kts | 114° |
| 2026-04-23 01:33 | -2.54091 | -61.41494 | 21779 ft | 391 kts | 114° |
| 2026-04-23 01:34 | -2.55201 | -61.39034 | 21339 ft | 388 kts | 114° |
| 2026-04-23 01:34 | -2.56313 | -61.36569 | 20903 ft | 386 kts | 114° |
| 2026-04-23 01:34 | -2.57409 | -61.34141 | 20480 ft | 384 kts | 114° |
| 2026-04-23 01:34 | -2.58510 | -61.31701 | 20051 ft | 381 kts | 114° |
| 2026-04-23 01:35 | -2.59588 | -61.29311 | 19634 ft | 379 kts | 114° |
| 2026-04-23 01:35 | -2.60675 | -61.26902 | 19219 ft | 377 kts | 114° |
| 2026-04-23 01:35 | -2.61744 | -61.24531 | 18817 ft | 375 kts | 114° |
| 2026-04-23 01:35 | -2.62820 | -61.22145 | 18408 ft | 374 kts | 114° |
| 2026-04-23 01:36 | -2.63880 | -61.19793 | 17966 ft | 372 kts | 114° |
| 2026-04-23 01:36 | -2.64946 | -61.17430 | 17536 ft | 370 kts | 114° |
| 2026-04-23 01:36 | -2.65992 | -61.15111 | 17132 ft | 367 kts | 114° |
| 2026-04-23 01:36 | -2.67045 | -61.12774 | 16750 ft | 364 kts | 114° |
| 2026-04-23 01:37 | -2.68075 | -61.10491 | 16347 ft | 361 kts | 114° |
| 2026-04-23 01:37 | -2.69099 | -61.08220 | 15959 ft | 359 kts | 114° |
| 2026-04-23 01:37 | -2.70128 | -61.05938 | 15575 ft | 356 kts | 114° |
| 2026-04-23 01:37 | -2.71137 | -61.03700 | 15195 ft | 354 kts | 114° |
| 2026-04-23 01:38 | -2.72151 | -61.01450 | 14810 ft | 352 kts | 114° |
| 2026-04-23 01:38 | -2.73147 | -60.99241 | 14436 ft | 351 kts | 114° |
| 2026-04-23 01:38 | -2.74154 | -60.97007 | 14055 ft | 349 kts | 114° |
| 2026-04-23 01:38 | -2.75154 | -60.94787 | 13661 ft | 348 kts | 114° |
| 2026-04-23 01:39 | -2.76140 | -60.92600 | 13238 ft | 346 kts | 114° |
| 2026-04-23 01:39 | -2.77120 | -60.90425 | 12855 ft | 344 kts | 114° |
| 2026-04-23 01:39 | -2.78111 | -60.88227 | 12485 ft | 342 kts | 114° |
| 2026-04-23 01:39 | -2.79077 | -60.86083 | 12108 ft | 339 kts | 114° |
| 2026-04-23 01:40 | -2.80039 | -60.83948 | 11740 ft | 337 kts | 114° |
| 2026-04-23 01:40 | -2.81003 | -60.81808 | 11368 ft | 335 kts | 114° |
| 2026-04-23 01:40 | -2.81953 | -60.79700 | 11007 ft | 333 kts | 114° |
| 2026-04-23 01:40 | -2.82900 | -60.77596 | 10806 ft | 325 kts | 114° |
| 2026-04-23 01:41 | -2.83811 | -60.75575 | 10657 ft | 316 kts | 114° |
| 2026-04-23 01:41 | -2.84709 | -60.73582 | 10507 ft | 308 kts | 115° |
| 2026-04-23 01:41 | -2.85570 | -60.71669 | 10368 ft | 299 kts | 115° |
| 2026-04-23 01:41 | -2.86417 | -60.69789 | 10219 ft | 291 kts | 115° |
| 2026-04-23 01:42 | -2.87231 | -60.67981 | 10081 ft | 283 kts | 115° |
| 2026-04-23 01:42 | -2.88033 | -60.66201 | 9801 ft | 281 kts | 115° |
| 2026-04-23 01:42 | -2.88842 | -60.64404 | 9468 ft | 280 kts | 115° |
| 2026-04-23 01:42 | -2.89635 | -60.62643 | 9161 ft | 279 kts | 115° |
| 2026-04-23 01:43 | -2.90433 | -60.60870 | 8861 ft | 277 kts | 115° |
| 2026-04-23 01:43 | -2.91214 | -60.59136 | 8566 ft | 275 kts | 115° |
| 2026-04-23 01:43 | -2.92000 | -60.57391 | 8267 ft | 273 kts | 115° |
| 2026-04-23 01:43 | -2.92779 | -60.55660 | 7987 ft | 271 kts | 114° |
| 2026-04-23 01:44 | -2.93547 | -60.53954 | 7705 ft | 270 kts | 114° |
| 2026-04-23 01:44 | -2.94314 | -60.52251 | 7414 ft | 268 kts | 114° |
| 2026-04-23 01:44 | -2.95089 | -60.50529 | 7129 ft | 267 kts | 114° |
| 2026-04-23 01:44 | -2.95844 | -60.48852 | 6846 ft | 266 kts | 114° |
| 2026-04-23 01:45 | -2.96606 | -60.47159 | 6559 ft | 265 kts | 114° |
| 2026-04-23 01:45 | -2.97355 | -60.45494 | 6260 ft | 264 kts | 114° |
| 2026-04-23 01:45 | -2.98116 | -60.43805 | 5964 ft | 263 kts | 114° |
| 2026-04-23 01:45 | -2.98863 | -60.42144 | 5677 ft | 262 kts | 114° |
| 2026-04-23 01:46 | -2.99605 | -60.40495 | 5395 ft | 261 kts | 114° |
| 2026-04-23 01:46 | -3.00356 | -60.38827 | 5108 ft | 260 kts | 114° |
| 2026-04-23 01:46 | -3.01093 | -60.37189 | 4816 ft | 259 kts | 114° |
| 2026-04-23 01:46 | -3.01585 | -60.36095 | 4680 ft | 256 kts | 114° |
| 2026-04-23 01:47 | -3.02539 | -60.33977 | 4500 ft | 246 kts | 114° |
| 2026-04-23 01:47 | -3.03001 | -60.32949 | 4424 ft | 240 kts | 114° |
| 2026-04-23 01:47 | -3.03647 | -60.30886 | 4245 ft | 229 kts | 99° |
| 2026-04-23 01:47 | -3.03763 | -60.29843 | 4156 ft | 224 kts | 92° |
| 2026-04-23 01:48 | -3.03810 | -60.27830 | 4074 ft | 208 kts | 90° |
| 2026-04-23 01:48 | -3.03815 | -60.26452 | 4003 ft | 191 kts | 90° |
| 2026-04-23 01:48 | -3.03817 | -60.25571 | 3874 ft | 188 kts | 90° |
| 2026-04-23 01:48 | -3.03820 | -60.24274 | 3655 ft | 183 kts | 90° |
| 2026-04-23 01:49 | -3.03823 | -60.23049 | 3449 ft | 169 kts | 90° |
| 2026-04-23 01:49 | -3.03826 | -60.21898 | 3240 ft | 165 kts | 90° |
| 2026-04-23 01:49 | -3.03828 | -60.20742 | 3048 ft | 165 kts | 90° |
| 2026-04-23 01:49 | -3.03830 | -60.19606 | 2835 ft | 164 kts | 90° |
| 2026-04-23 01:50 | -3.03832 | -60.18461 | 2626 ft | 163 kts | 90° |
| 2026-04-23 01:50 | -3.03834 | -60.17337 | 2418 ft | 163 kts | 90° |
| 2026-04-23 01:50 | -3.03836 | -60.16197 | 2220 ft | 163 kts | 90° |
| 2026-04-23 01:50 | -3.03838 | -60.15070 | 2015 ft | 162 kts | 90° |
| 2026-04-23 01:51 | -3.03841 | -60.13952 | 1800 ft | 162 kts | 90° |
| 2026-04-23 01:51 | -3.03843 | -60.12825 | 1586 ft | 161 kts | 90° |
| 2026-04-23 01:51 | -3.03845 | -60.11715 | 1370 ft | 160 kts | 90° |
| 2026-04-23 01:51 | -3.03847 | -60.10600 | 1158 ft | 159 kts | 90° |
| 2026-04-23 01:52 | -3.03849 | -60.09505 | 957 ft | 157 kts | 90° |
| 2026-04-23 01:52 | -3.03851 | -60.08423 | 751 ft | 157 kts | 89° |
| 2026-04-23 01:52 | -3.03862 | -60.07295 | 522 ft | 163 kts | 90° |
| 2026-04-23 01:52 | -3.03863 | -60.06161 | 295 ft | 160 kts | 89° |
| 2026-04-23 01:53 | -3.03860 | -60.05125 | 272 ft | 137 kts | 90° |
| 2026-04-23 01:53 | -3.03860 | -60.04313 | 272 ft | 94 kts | 90° |
| 2026-04-23 01:53 | -3.03860 | -60.03889 | 271 ft | 26 kts | 89° |
| 2026-04-23 01:53 | -3.03802 | -60.03775 | 271 ft | 21 kts | 16° |
| 2026-04-23 01:54 | -3.03686 | -60.03839 | 271 ft | 22 kts | 290° |
| 2026-04-23 01:54 | -3.03646 | -60.03988 | 271 ft | 23 kts | 285° |
| 2026-04-23 01:54 | -3.03604 | -60.04145 | 271 ft | 23 kts | 285° |
| 2026-04-23 01:54 | -3.03531 | -60.04292 | 271 ft | 24 kts | 314° |
| 2026-04-23 01:55 | -3.03395 | -60.04375 | 271 ft | 24 kts | 343° |
| 2026-04-23 01:55 | -3.03317 | -60.04432 | 271 ft | 7 kts | 272° |
| 2026-04-23 01:55 | -3.03327 | -60.04495 | 271 ft | 14 kts | 259° |
| 2026-04-23 01:55 | -3.03350 | -60.04628 | 271 ft | 23 kts | 261° |
| 2026-04-23 01:56 | -3.03338 | -60.04768 | 271 ft | 17 kts | 320° |
| 2026-04-23 01:56 | -3.03283 | -60.04776 | 271 ft | 7 kts | 358° |
| 2026-04-23 01:56 | -3.03258 | -60.04778 | 271 ft | 0 kts | 353° |